Time;durP1;ratioP1;P1;durP2;ratioP2;P2;SDS_P1;SDS_P2;PMS_P1;PMS_P2;Temp;Humidity;BMP_temperature;BMP_pressure;BME280_temperature;BME280_humidity;BME280_pressure;Samples;Min_cycle;Max_cycle;Signal;HPM_P1;HPM_P2
2022/01/07 00:00:35;;;;;;;33.45;12.18;;;;;;;0.81;99.60;100725.41;4904503;29;20049;-90
2022/01/07 00:03:06;;;;;;;27.88;12.25;;;;;;;0.92;99.45;100730.63;4897410;29;20140;-88
2022/01/07 00:05:35;;;;;;;30.45;12.30;;;;;;;0.81;100.00;100722.81;4908589;29;20055;-88
2022/01/07 00:08:03;;;;;;;28.50;11.77;;;;;;;0.76;99.80;100719.34;4896639;29;20099;-88
2022/01/07 00:10:42;;;;;;;32.92;12.70;;;;;;;0.80;100.00;100722.81;4903879;29;20051;-90
2022/01/07 00:13:11;;;;;;;20.63;11.27;;;;;;;0.75;100.00;100712.41;4902337;29;20049;-89
2022/01/07 00:15:41;;;;;;;;;;;;;;;0.98;99.90;100747.09;4901836;29;20492;-89
2022/01/07 00:18:09;;;;;;;21.17;10.75;;;;;;;0.64;100.00;100698.50;4902535;29;19930;-89
2022/01/07 00:20:37;;;;;;;26.35;12.10;;;;;;;0.94;99.14;100744.53;4895595;29;20501;-88
2022/01/07 00:23:07;;;;;;;26.08;12.35;;;;;;;0.55;99.25;100685.50;4905691;29;20636;-89
2022/01/07 00:25:34;;;;;;;30.20;12.68;;;;;;;0.69;99.40;100708.06;4899098;29;20072;-89
2022/01/07 00:28:01;;;;;;;26.00;13.57;;;;;;;0.62;100.00;100708.97;4902224;29;20056;-89
2022/01/07 00:30:29;;;;;;;33.70;12.02;;;;;;;0.51;99.85;100681.16;4885970;29;20135;-88
2022/01/07 00:32:57;;;;;;;27.98;12.15;;;;;;;0.63;100.00;100704.63;4905605;29;20067;-89
2022/01/07 00:35:24;;;;;;;31.42;12.32;;;;;;;0.70;100.00;100724.56;4891262;29;20063;-89
2022/01/07 00:37:59;;;;;;;23.20;11.73;;;;;;;0.61;100.00;100703.75;4909205;29;20116;-89
2022/01/07 00:40:26;;;;;;;26.85;12.23;;;;;;;0.42;100.00;100676.84;4906525;29;20654;-89
2022/01/07 00:42:57;;;;;;;32.28;12.40;;;;;;;0.55;100.00;100709.81;4896869;29;20064;-89
2022/01/07 00:45:25;;;;;;;23.73;11.52;;;;;;;0.53;100.00;100715.91;4899469;29;20049;-90
2022/01/07 00:47:53;;;;;;;26.45;11.73;;;;;;;0.64;100.00;100733.25;4903120;29;20313;-90
2022/01/07 00:50:23;;;;;;;23.27;11.68;;;;;;;0.51;100.00;100720.25;4920179;29;20045;-90
2022/01/07 00:52:52;;;;;;;21.42;12.40;;;;;;;0.51;100.00;100713.28;4898697;29;20147;-89
2022/01/07 00:55:21;;;;;;;25.58;12.57;;;;;;;0.57;100.00;100710.69;4897691;29;20064;-88
2022/01/07 00:57:48;;;;;;;27.42;12.15;;;;;;;0.58;100.00;100722.00;4896754;29;20048;-89
2022/01/07 01:00:19;;;;;;;22.92;11.75;;;;;;;0.35;100.00;100675.09;4905067;29;20497;-89
2022/01/07 01:02:46;;;;;;;;;;;;;;;0.72;100.00;100722.84;4898959;29;20123;-89
2022/01/07 01:05:14;;;;;;;23.73;12.63;;;;;;;0.74;100.00;100728.91;4892372;29;19932;-89
2022/01/07 01:07:42;;;;;;;28.70;12.40;;;;;;;0.63;100.00;100702.00;4897175;29;20088;-89
2022/01/07 01:10:11;;;;;;;28.75;12.90;;;;;;;0.65;100.00;100708.06;4891644;29;20044;-89
2022/01/07 01:12:42;;;;;;;25.38;11.82;;;;;;;0.62;100.00;100700.28;4883232;29;20075;-89
2022/01/07 01:15:17;;;;;;;26.30;13.13;;;;;;;0.67;100.00;100711.53;4894206;29;20416;-88
2022/01/07 01:17:44;;;;;;;25.20;12.57;;;;;;;0.55;100.00;100678.56;4894961;29;20116;-89
2022/01/07 01:20:12;;;;;;;26.42;12.65;;;;;;;0.87;100.00;100733.22;4892738;29;20075;-89
2022/01/07 01:22:42;;;;;;;27.13;13.13;;;;;;;0.66;100.00;100684.59;4897632;29;20053;-89
2022/01/07 01:25:22;;;;;;;27.75;13.02;;;;;;;0.65;100.00;100689.81;5065843;27;20713;-90
2022/01/07 01:27:50;;;;;;;32.22;13.85;;;;;;;0.57;100.00;100671.59;5062281;28;20144;-90
2022/01/07 01:30:18;;;;;;;26.98;13.55;;;;;;;0.58;100.00;100668.13;5061244;28;20057;-91
2022/01/07 01:32:49;;;;;;;25.95;12.82;;;;;;;0.63;100.00;100684.59;5079925;28;20074;-90
2022/01/07 01:35:17;;;;;;;28.00;13.57;;;;;;;0.68;100.00;100685.47;5072520;28;20483;-89
2022/01/07 01:37:46;;;;;;;25.38;12.88;;;;;;;0.76;100.00;100687.22;5061593;28;20076;-89
2022/01/07 01:40:16;;;;;;;27.63;12.57;;;;;;;0.59;100.00;100650.75;5072052;28;20053;-89
2022/01/07 01:42:43;;;;;;;28.25;13.13;;;;;;;0.72;100.00;100691.56;5063535;28;20550;-90
2022/01/07 01:45:11;;;;;;;23.77;12.85;;;;;;;0.66;100.00;100678.53;5063789;28;20104;-90
2022/01/07 01:47:42;;;;;;;20.95;12.23;;;;;;;0.72;100.00;100686.34;5062441;28;20056;-90
2022/01/07 01:50:10;;;;;;;28.63;13.27;;;;;;;0.62;100.00;100663.78;5080882;28;20118;-91
2022/01/07 01:52:37;;;;;;;28.70;13.65;;;;;;;0.72;100.00;100682.88;5076429;28;20472;-90
2022/01/07 01:55:05;;;;;;;29.00;13.43;;;;;;;0.73;100.00;100679.38;5072359;28;20079;-90
2022/01/07 01:57:33;;;;;;;31.10;13.80;;;;;;;0.47;100.00;100628.22;5072301;28;20049;-90
2022/01/07 02:00:03;;;;;;;23.77;13.48;;;;;;;0.77;100.00;100674.19;5082427;28;20053;-89
2022/01/07 02:02:31;;;;;;;30.75;14.13;;;;;;;0.67;100.00;100649.00;5081448;28;20098;-90
2022/01/07 02:05:01;;;;;;;27.38;13.55;;;;;;;0.64;100.00;100641.16;5074095;28;20049;-90
2022/01/07 02:07:28;;;;;;;24.20;13.65;;;;;;;0.55;100.00;100615.16;5063193;28;20124;-91
2022/01/07 02:09:56;;;;;;;31.77;14.20;;;;;;;0.53;100.00;100603.88;5075361;28;20052;-90
2022/01/07 02:12:25;;;;;;;25.65;12.98;;;;;;;0.76;100.00;100630.72;5075931;28;20567;-90
2022/01/07 02:14:55;;;;;;;25.55;13.88;;;;;;;0.75;100.00;100625.53;5069589;28;20049;-89
2022/01/07 02:17:26;;;;;;;26.50;14.20;;;;;;;0.79;100.00;100620.28;5070944;28;20053;-89
2022/01/07 02:19:56;;;;;;;32.72;14.45;;;;;;;0.80;100.00;100616.78;5061905;28;20049;-90
2022/01/07 02:22:29;;;;;;;;;;;;;;;1.01;100.00;100652.34;5066906;28;20052;-90
2022/01/07 02:24:56;;;;;;;29.70;13.43;;;;;;;0.88;100.00;100620.25;5060442;28;19994;-90
2022/01/07 02:27:25;;;;;;;31.98;14.30;;;;;;;0.96;100.00;100628.03;5063347;28;20071;-90
2022/01/07 02:29:54;;;;;;;26.08;14.13;;;;;;;0.99;100.00;100634.09;5068558;28;20078;-90
2022/01/07 02:32:22;;;;;;;27.75;14.57;;;;;;;1.06;100.00;100634.97;5068914;28;20060;-90
2022/01/07 02:34:49;;;;;;;25.40;14.40;;;;;;;1.04;100.00;100636.69;5059145;28;20045;-90
2022/01/07 02:37:17;;;;;;;27.38;13.88;;;;;;;0.72;100.00;100583.81;5050252;28;20113;-90
2022/01/07 02:39:46;;;;;;;29.10;14.82;;;;;;;0.82;100.00;100603.75;5054824;28;20110;-89
2022/01/07 02:42:13;;;;;;;43.92;16.33;;;;;;;0.78;100.00;100602.06;5061515;28;20050;-91
2022/01/07 02:44:40;;;;;;;30.08;15.82;;;;;;;0.66;100.00;100579.50;5072295;28;20045;-90
2022/01/07 02:47:12;;;;;;;28.40;14.48;;;;;;;0.77;100.00;100611.63;5056325;28;20619;-90
2022/01/07 02:49:39;;;;;;;31.88;16.23;;;;;;;0.69;100.00;100596.00;5068142;28;20044;-89
2022/01/07 02:52:07;;;;;;;39.67;18.55;;;;;;;0.90;100.00;100618.50;5050898;28;20056;-89
2022/01/07 02:54:34;;;;;;;31.60;16.55;;;;;;;0.67;100.00;100565.59;5056091;28;20048;-90
2022/01/07 02:57:01;;;;;;;33.40;15.85;;;;;;;0.80;100.00;100580.28;5054697;28;20049;-89
2022/01/07 02:59:28;;;;;;;36.88;16.45;;;;;;;0.83;100.00;100585.50;5052882;28;20068;-90
2022/01/07 03:01:59;;;;;;;40.08;17.83;;;;;;;0.90;100.00;100575.94;5065028;28;20052;-90
2022/01/07 03:04:28;;;;;;;36.35;17.67;;;;;;;0.91;100.00;100588.97;5054699;28;20136;-90
2022/01/07 03:06:55;;;;;;;28.65;15.60;;;;;;;1.02;100.00;100602.81;5054566;28;20492;-89
2022/01/07 03:09:22;;;;;;;34.20;16.30;;;;;;;0.98;100.00;100605.41;5047880;28;20098;-90
2022/01/07 03:11:49;;;;;;;33.95;16.00;;;;;;;0.78;100.00;100581.22;5054216;28;20072;-90
2022/01/07 03:14:17;;;;;;;31.98;15.52;;;;;;;0.74;100.00;100569.91;5057676;28;20049;-90
2022/01/07 03:16:44;;;;;;;34.47;16.88;;;;;;;0.94;100.00;100594.16;5055910;28;20053;-90
2022/01/07 03:19:13;;;;;;;30.70;15.50;;;;;;;0.82;100.00;100567.25;5051951;28;20063;-90
2022/01/07 03:21:41;;;;;;;36.30;17.48;;;;;;;0.83;100.00;100567.25;5064635;28;20057;-89
2022/01/07 03:24:12;;;;;;;31.35;15.95;;;;;;;0.65;100.00;100538.66;5059020;28;20072;-90
2022/01/07 03:26:39;;;;;;;29.60;16.55;;;;;;;0.72;100.00;100555.16;5049047;28;20045;-90
2022/01/07 03:29:07;;;;;;;37.28;16.65;;;;;;;0.68;100.00;100549.09;5051358;28;20053;-90
2022/01/07 03:31:34;;;;;;;32.08;15.60;;;;;;;0.74;100.00;100563.84;5060202;28;20067;-90
2022/01/07 03:34:03;;;;;;;31.27;15.50;;;;;;;0.87;100.00;100581.16;5056506;28;20057;-90
2022/01/07 03:36:31;;;;;;;28.08;15.63;;;;;;;0.90;100.00;100570.72;5054567;28;20084;-90
2022/01/07 03:39:01;;;;;;;31.77;15.98;;;;;;;0.74;100.00;100558.63;5043243;28;20072;-89
2022/01/07 03:41:28;;;;;;;29.08;16.10;;;;;;;0.73;100.00;100543.84;5054622;28;20056;-89
2022/01/07 03:43:55;;;;;;;34.15;16.05;;;;;;;0.55;100.00;100503.09;5067216;28;20048;-90
2022/01/07 03:46:22;;;;;;;27.10;14.73;;;;;;;0.82;100.00;100531.63;5064974;28;20433;-90
2022/01/07 03:48:51;;;;;;;34.75;15.55;;;;;;;0.65;100.00;100507.41;5044976;28;20068;-90
2022/01/07 03:51:18;;;;;;;33.45;15.93;;;;;;;0.76;100.00;100541.25;5048912;28;20055;-90
2022/01/07 03:53:45;;;;;;;29.63;14.98;;;;;;;0.89;100.00;100564.63;5055362;28;20071;-89
2022/01/07 03:56:17;;;;;;;31.15;16.63;;;;;;;0.81;100.00;100545.53;5058697;28;20055;-89
2022/01/07 03:58:45;;;;;;;31.85;14.95;;;;;;;0.98;100.00;100564.56;5045828;28;20053;-90
2022/01/07 04:01:12;;;;;;;30.80;15.00;;;;;;;0.91;100.00;100556.81;5053082;28;20080;-88
2022/01/07 04:03:40;;;;;;;26.35;13.73;;;;;;;0.72;100.00;100505.63;5051784;28;20060;-90
2022/01/07 04:06:07;;;;;;;31.83;15.15;;;;;;;1.02;100.00;100555.00;5044109;28;20049;-89
2022/01/07 04:08:34;;;;;;;34.00;16.30;;;;;;;0.97;100.00;100557.63;5042046;28;20048;-90
2022/01/07 04:11:02;;;;;;;28.85;15.45;;;;;;;0.87;100.00;100535.09;5051279;28;20041;-90
2022/01/07 04:13:29;;;;;;;31.48;15.38;;;;;;;0.99;100.00;100545.44;5046057;28;20049;-89
2022/01/07 04:15:58;;;;;;;29.33;14.82;;;;;;;0.65;100.00;100486.53;5049182;28;20037;-90
2022/01/07 04:18:25;;;;;;;31.85;14.77;;;;;;;0.95;100.00;100548.94;5038303;28;20106;-88
2022/01/07 04:20:52;;;;;;;28.65;14.68;;;;;;;0.94;100.00;100544.63;5052395;28;20122;-89
2022/01/07 04:23:19;;;;;;;31.98;14.95;;;;;;;0.99;100.00;100560.22;5051887;28;20122;-88
2022/01/07 04:25:48;;;;;;;32.28;14.55;;;;;;;0.78;100.00;100534.28;5053429;28;20195;-88
2022/01/07 04:28:15;;;;;;;28.75;14.73;;;;;;;0.86;100.00;100548.13;5048168;28;20053;-92
2022/01/07 04:30:44;;;;;;;30.17;15.77;;;;;;;0.78;99.96;100532.53;5049549;28;20519;-88
2022/01/07 04:33:14;;;;;;;29.40;14.90;;;;;;;0.83;100.00;100535.97;5051249;28;20050;-88
2022/01/07 04:35:43;;;;;;;30.58;14.57;;;;;;;0.69;100.00;100528.22;5048729;28;20042;-89
2022/01/07 04:38:10;;;;;;;27.30;14.23;;;;;;;0.50;100.00;100484.00;5053458;28;20045;-89
2022/01/07 04:40:38;;;;;;;28.00;14.25;;;;;;;0.78;100.00;100537.75;5071958;28;20033;-89
2022/01/07 04:43:06;;;;;;;28.65;15.02;;;;;;;0.86;100.00;100532.50;5065878;28;20059;-90
2022/01/07 04:45:34;;;;;;;28.38;14.20;;;;;;;0.59;100.00;100468.34;5069979;28;20173;-89
2022/01/07 04:48:03;;;;;;;30.17;15.23;;;;;;;0.79;100.00;100505.56;5061838;28;20071;-89
2022/01/07 04:50:30;;;;;;;31.13;14.88;;;;;;;0.77;100.00;100475.22;5063268;28;20045;-91
2022/01/07 04:52:58;;;;;;;29.23;14.60;;;;;;;0.74;99.62;100468.25;5069988;28;20041;-89
2022/01/07 04:55:29;;;;;;;28.60;14.30;;;;;;;0.98;99.69;100507.22;5064785;28;20056;-90
2022/01/07 04:57:56;;;;;;;26.27;13.80;;;;;;;0.99;99.39;100506.34;5049751;28;20093;-89
2022/01/07 05:00:24;;;;;;;29.73;13.75;;;;;;;0.76;99.51;100469.13;5055223;28;20049;-90
2022/01/07 05:02:51;;;;;;;30.40;15.68;;;;;;;1.10;99.68;100526.28;5054269;28;20495;-89
2022/01/07 05:05:19;;;;;;;26.95;14.05;;;;;;;1.16;99.85;100523.63;5052438;28;20049;-90
2022/01/07 05:07:47;;;;;;;23.33;12.57;;;;;;;1.02;98.96;100488.06;5049265;28;20069;-89
2022/01/07 05:10:15;;;;;;;26.77;14.55;;;;;;;1.03;99.48;100481.97;5039121;28;20331;-89
2022/01/07 05:12:44;;;;;;;26.70;14.43;;;;;;;1.12;98.75;100496.69;5051589;28;20110;-90
2022/01/07 05:15:13;;;;;;;26.25;14.90;;;;;;;0.94;99.36;100468.16;5045955;28;20053;-90
2022/01/07 05:17:45;;;;;;;27.98;14.77;;;;;;;0.94;99.38;100462.94;5051559;28;20061;-90
2022/01/07 05:20:14;;;;;;;27.48;14.48;;;;;;;1.19;99.53;100506.22;5053808;28;20045;-89
2022/01/07 05:22:43;;;;;;;27.67;15.00;;;;;;;1.09;99.22;100477.59;5053191;28;20077;-89
2022/01/07 05:25:17;;;;;;;28.15;14.80;;;;;;;1.13;100.00;100484.50;5055151;28;20075;-90
2022/01/07 05:27:47;;;;;;;27.25;13.98;;;;;;;1.26;99.11;100504.44;5045851;28;20126;-90
2022/01/07 05:30:14;;;;;;;31.13;14.68;;;;;;;0.93;99.61;100430.78;5050246;28;20054;-89
2022/01/07 05:32:41;;;;;;;31.90;14.68;;;;;;;0.93;99.72;100428.19;5053253;28;20080;-90
2022/01/07 05:35:08;;;;;;;33.78;14.50;;;;;;;1.29;99.26;100488.72;5046566;28;20555;-90
2022/01/07 05:37:36;;;;;;;27.27;14.45;;;;;;;1.20;98.66;100463.59;5050721;28;20487;-90
2022/01/07 05:40:05;;;;;;;29.25;14.07;;;;;;;1.28;98.24;100467.00;5055378;28;20143;-91
2022/01/07 05:42:32;;;;;;;31.27;14.13;;;;;;;1.30;97.82;100469.59;5059305;28;20060;-90
2022/01/07 05:45:02;;;;;;;24.48;13.80;;;;;;;1.48;97.57;100490.31;5055726;28;20128;-90
2022/01/07 05:47:29;;;;;;;28.13;14.52;;;;;;;1.30;97.98;100472.19;5060625;28;20106;-89
2022/01/07 05:49:56;;;;;;;28.20;15.77;;;;;;;1.10;98.43;100448.91;5051629;28;20462;-90
2022/01/07 05:52:25;;;;;;;29.38;15.55;;;;;;;1.20;98.80;100461.00;5054627;28;20048;-90
2022/01/07 05:54:51;;;;;;;27.10;14.23;;;;;;;1.28;97.38;100453.94;5052547;28;20048;-90
2022/01/07 05:57:19;;;;;;;30.13;15.40;;;;;;;1.14;98.02;100436.69;5057004;28;20041;-90
2022/01/07 05:59:46;;;;;;;34.20;15.43;;;;;;;1.38;97.45;100475.63;5060472;28;20556;-90
2022/01/07 06:02:13;;;;;;;30.40;16.17;;;;;;;1.34;97.82;100473.91;5061161;28;20071;-90
2022/01/07 06:04:43;;;;;;;31.15;15.82;;;;;;;1.31;98.33;100479.16;5048285;28;20527;-90
2022/01/07 06:07:11;;;;;;;29.38;15.63;;;;;;;1.11;98.49;100449.75;5050630;28;20144;-89
2022/01/07 06:09:38;;;;;;;28.88;15.40;;;;;;;1.25;98.65;100460.97;5048500;28;20056;-90
2022/01/07 06:12:06;;;;;;;27.92;14.32;;;;;;;1.16;98.07;100442.75;5046114;28;20163;-89
2022/01/07 06:14:34;;;;;;;32.05;15.52;;;;;;;1.32;98.54;100460.00;5043673;28;20064;-89
2022/01/07 06:17:01;;;;;;;27.77;15.43;;;;;;;1.11;97.89;100428.88;5053490;28;20516;-90
2022/01/07 06:19:31;;;;;;;24.48;14.77;;;;;;;1.29;97.76;100455.69;5050634;28;20102;-89
2022/01/07 06:21:58;;;;;;;23.70;14.70;;;;;;;1.23;97.32;100439.25;5056405;28;20057;-90
2022/01/07 06:24:28;;;;;;;23.23;14.07;;;;;;;1.32;97.46;100450.44;5050543;28;20504;-90
2022/01/07 06:26:55;;;;;;;29.23;15.02;;;;;;;1.30;97.60;100456.56;5056242;28;20056;-90
2022/01/07 06:29:22;;;;;;;26.60;13.98;;;;;;;1.20;96.92;100427.09;5047770;28;20045;-89
2022/01/07 06:31:58;;;;;;;28.10;14.40;;;;;;;1.18;97.31;100425.34;5057993;28;20102;-90
2022/01/07 06:34:27;;;;;;;25.25;13.48;;;;;;;1.08;97.43;100397.63;5055272;28;20156;-90
2022/01/07 06:36:54;;;;;;;26.70;14.52;;;;;;;1.20;96.65;100410.56;5051555;28;20053;-90
2022/01/07 06:39:22;;;;;;;23.70;13.68;;;;;;;1.03;97.62;100390.72;5052011;28;20413;-89
2022/01/07 06:41:51;;;;;;;26.70;13.30;;;;;;;1.23;97.04;100415.75;5055597;28;20045;-91
2022/01/07 06:44:19;;;;;;;22.80;13.68;;;;;;;1.19;96.90;100401.88;5056034;28;20053;-90
2022/01/07 06:46:47;;;;;;;23.20;13.15;;;;;;;1.31;96.46;100421.75;5066594;28;20044;-89
2022/01/07 06:49:14;;;;;;;26.38;13.40;;;;;;;1.31;96.30;100421.75;5062142;28;20046;-91
2022/01/07 06:51:42;;;;;;;27.08;12.93;;;;;;;1.28;96.48;100419.16;5060003;28;20061;-90
2022/01/07 06:54:11;;;;;;;27.70;13.65;;;;;;;1.42;96.73;100440.78;5053141;28;20131;-89
2022/01/07 06:56:39;;;;;;;29.20;12.70;;;;;;;1.14;96.79;100387.13;5056499;28;20064;-89
2022/01/07 06:59:06;;;;;;;27.73;13.38;;;;;;;1.24;97.26;100417.50;5060605;28;20064;-89
2022/01/07 07:01:34;;;;;;;27.48;13.73;;;;;;;1.36;97.98;100443.47;5065091;28;20049;-91
2022/01/07 07:04:01;;;;;;;23.75;12.93;;;;;;;1.22;97.44;100414.03;5063091;28;20116;-89
2022/01/07 07:06:28;;;;;;;25.27;13.48;;;;;;;1.20;97.07;100398.38;5068419;28;20040;-91
2022/01/07 07:08:56;;;;;;;22.77;12.57;;;;;;;1.46;95.69;100426.84;5065201;28;20071;-89
2022/01/07 07:11:23;;;;;;;24.15;13.27;;;;;;;1.64;94.96;100451.91;5062418;28;20076;-91
2022/01/07 07:13:50;;;;;;;25.67;13.10;;;;;;;1.31;94.99;100409.59;5052336;28;20046;-90
2022/01/07 07:16:19;;;;;;;23.75;13.35;;;;;;;1.44;94.52;100428.59;5058492;28;20072;-89
2022/01/07 07:18:52;;;;;;;26.70;13.40;;;;;;;1.55;95.08;100458.09;5055043;28;20049;-89
2022/01/07 07:21:20;;;;;;;28.05;13.10;;;;;;;1.18;96.00;100407.09;5057540;28;20068;-90
2022/01/07 07:23:54;;;;;;;25.17;12.75;;;;;;;1.39;96.35;100451.28;5062563;28;20075;-89
2022/01/07 07:26:21;;;;;;;21.77;13.45;;;;;;;1.05;97.70;100412.44;5060761;28;20065;-90
2022/01/07 07:28:58;;;;;;;25.42;13.77;;;;;;;1.06;98.79;100423.72;5047174;28;20136;-91
2022/01/07 07:31:31;;;;;;;25.23;13.73;;;;;;;1.04;99.21;100455.03;5052529;28;20045;-88
2022/01/07 07:34:19;;;;;;;25.08;14.20;;;;;;;0.61;100.00;100386.69;5051969;28;20053;-88
2022/01/07 07:36:47;;;;;;;29.80;16.48;;;;;;;0.82;100.00;100436.91;5050416;28;20087;-88
2022/01/07 07:39:15;;;;;;;34.10;18.65;;;;;;;0.67;100.00;100440.50;5054768;28;20122;-91
2022/01/07 07:41:43;;;;;;;36.58;19.15;;;;;;;0.48;100.00;100418.88;5054144;28;20056;-90
2022/01/07 07:44:10;;;;;;;36.47;19.02;;;;;;;0.34;100.00;100403.34;5065859;28;20047;-88
2022/01/07 07:46:40;;;;;;;40.20;19.55;;;;;;;0.40;100.00;100418.09;5072385;28;20037;-86
2022/01/07 07:49:08;;;;;;;46.83;21.40;;;;;;;0.50;100.00;100426.69;5063010;28;20042;-88
2022/01/07 07:51:36;;;;;;;41.25;20.45;;;;;;;0.47;100.00;100426.75;5066884;28;20476;-87
2022/01/07 07:54:04;;;;;;;43.83;21.80;;;;;;;0.52;100.00;100449.28;5064865;28;20053;-88
2022/01/07 07:56:31;;;;;;;40.80;22.10;;;;;;;0.44;100.00;100431.97;5070651;28;20059;-89
2022/01/07 07:58:58;;;;;;;39.60;20.95;;;;;;;0.44;100.00;100424.16;5065301;28;20037;-88
2022/01/07 08:01:26;;;;;;;42.28;21.90;;;;;;;0.30;100.00;100401.66;5070710;28;20049;-89
2022/01/07 08:03:53;;;;;;;45.40;22.73;;;;;;;0.26;100.00;100389.50;5063176;28;20105;-88
2022/01/07 08:06:20;;;;;;;43.50;21.42;;;;;;;0.31;100.00;100392.97;5075536;28;20048;-89
2022/01/07 08:08:47;;;;;;;47.58;25.10;;;;;;;0.45;100.00;100423.28;5066368;28;20496;-89
2022/01/07 08:11:15;;;;;;;48.08;24.08;;;;;;;0.20;100.00;100371.31;5063064;28;20080;-89
2022/01/07 08:16:28;;;;;;;46.75;24.67;;;;;;;0.35;100.00;100399.00;5055379;28;20553;-90
2022/01/07 08:18:57;;;;;;;56.38;25.70;;;;;;;0.41;100.00;100409.41;5046767;28;20057;-88
2022/01/07 08:21:26;;;;;;;52.88;25.52;;;;;;;0.43;100.00;100404.19;5048427;28;20053;-88
2022/01/07 08:23:54;;;;;;;54.97;27.30;;;;;;;0.27;100.00;100375.63;5048833;28;20060;-88
2022/01/07 08:26:21;;;;;;;55.58;27.48;;;;;;;0.52;100.00;100404.09;5054783;28;20618;-88
2022/01/07 08:28:53;;;;;;;54.58;27.30;;;;;;;0.46;100.00;100386.78;5051903;28;20049;-88
2022/01/07 08:36:46;;;;;;;57.75;25.88;;;;;;;0.53;100.00;100378.06;5053306;28;20049;-89
2022/01/07 08:39:13;;;;;;;54.10;26.27;;;;;;;0.62;100.00;100364.97;5045872;28;20053;-88
2022/01/07 08:41:42;;;;;;;55.08;26.85;;;;;;;0.66;100.00;100373.63;5051870;28;20080;-89
2022/01/07 08:44:11;;;;;;;46.63;23.63;;;;;;;0.76;100.00;100377.03;5047761;28;20077;-86
2022/01/07 08:46:38;;;;;;;47.22;24.13;;;;;;;0.64;100.00;100357.13;5044361;28;20053;-87
2022/01/07 08:49:05;;;;;;;50.88;25.05;;;;;;;0.69;100.00;100365.78;5047191;28;20163;-87
2022/01/07 08:51:32;;;;;;;50.03;25.50;;;;;;;0.56;100.00;100349.38;5042634;28;20056;-86
2022/01/07 08:54:00;;;;;;;55.22;26.98;;;;;;;0.70;100.00;100376.19;5044978;28;20045;-86
2022/01/07 08:56:27;;;;;;;50.80;25.50;;;;;;;0.72;100.00;100375.31;5042184;28;20073;-86
2022/01/07 08:58:57;;;;;;;48.83;24.65;;;;;;;0.71;100.00;100374.44;5043040;28;20076;-85
2022/01/07 09:01:28;;;;;;;46.58;24.83;;;;;;;0.75;100.00;100368.34;5044183;28;20089;-87
2022/01/07 09:03:56;;;;;;;51.63;26.05;;;;;;;0.69;100.00;100364.03;5049074;28;20049;-86
2022/01/07 09:06:22;;;;;;;49.05;25.90;;;;;;;0.67;100.00;100357.09;5039961;28;20053;-87
2022/01/07 09:08:49;;;;;;;49.08;24.98;;;;;;;0.78;100.00;100367.47;5042174;28;20076;-87
2022/01/07 09:11:17;;;;;;;46.50;25.63;;;;;;;0.56;100.00;100344.16;5043366;28;20138;-86
2022/01/07 09:13:45;;;;;;;49.40;24.63;;;;;;;0.59;100.00;100351.09;5051890;28;20052;-87
2022/01/07 09:16:12;;;;;;;53.25;25.67;;;;;;;0.61;100.00;100354.56;5046030;28;20606;-87
2022/01/07 09:18:39;;;;;;;46.63;24.10;;;;;;;0.59;100.00;100357.19;5046071;28;20057;-86
2022/01/07 09:21:09;;;;;;;44.90;25.17;;;;;;;0.55;100.00;100372.84;5040980;28;20051;-86
2022/01/07 09:23:41;;;;;;;49.53;25.42;;;;;;;0.57;100.00;100368.47;5051411;28;20059;-87
2022/01/07 09:26:09;;;;;;;52.45;25.67;;;;;;;0.60;100.00;100378.88;5048450;28;20044;-87
2022/01/07 09:28:39;;;;;;;47.85;26.10;;;;;;;0.58;100.00;100380.63;5043045;28;20045;-87
2022/01/07 09:31:06;;;;;;;52.15;24.88;;;;;;;0.67;100.00;100377.94;5040218;28;20056;-86
2022/01/07 09:33:33;;;;;;;45.70;23.73;;;;;;;0.53;100.00;100345.91;5053150;28;20049;-87
2022/01/07 09:36:20;;;;;;;46.90;24.52;;;;;;;0.52;100.00;100338.97;5047579;28;20037;-87
2022/01/07 09:38:46;;;;;;;43.90;22.73;;;;;;;0.69;100.00;100363.16;5045146;28;20076;-87
2022/01/07 09:41:14;;;;;;;43.13;21.58;;;;;;;0.57;100.00;100345.91;5045695;28;20514;-87
2022/01/07 09:43:43;;;;;;;41.28;20.80;;;;;;;0.55;100.00;100338.97;5049919;28;20053;-87
2022/01/07 09:46:18;;;;;;;40.67;20.70;;;;;;;0.61;100.00;100357.16;5048709;28;20742;-89
2022/01/07 09:48:47;;;;;;;42.88;21.95;;;;;;;0.43;100.00;100313.00;5047720;28;20348;-88
2022/01/07 09:51:15;;;;;;;45.25;23.15;;;;;;;0.41;100.00;100305.19;5053091;28;20108;-86
2022/01/07 09:53:42;;;;;;;40.50;21.27;;;;;;;0.77;100.00;100361.38;5074702;28;20045;-87
2022/01/07 09:56:11;;;;;;;34.28;19.10;;;;;;;0.77;100.00;100335.31;5068022;28;20099;-87
2022/01/07 09:58:38;;;;;;;44.95;21.30;;;;;;;0.92;100.00;100349.97;5043244;28;20049;-86
2022/01/07 10:01:09;;;;;;;44.33;22.20;;;;;;;0.80;100.00;100313.56;5042587;28;20048;-87
2022/01/07 10:03:40;;;;;;;39.20;20.48;;;;;;;0.79;100.00;100312.69;5057459;28;20055;-85
2022/01/07 10:06:22;;;;;;;40.92;18.88;;;;;;;0.87;100.00;100303.06;5058178;28;20067;-87
2022/01/07 10:09:07;;;;;;;33.83;19.02;;;;;;;0.91;100.00;100319.56;5042368;28;20055;-87
2022/01/07 10:11:34;;;;;;;35.88;18.20;;;;;;;1.04;100.00;100353.31;5041483;28;20052;-87
2022/01/07 10:14:17;;;;;;;36.17;20.02;;;;;;;1.03;100.00;100346.38;5042401;28;20053;-86
2022/01/07 10:16:56;;;;;;;38.05;19.80;;;;;;;0.89;100.00;100316.09;5045151;28;20145;-88
2022/01/07 10:19:45;;;;;;;37.78;20.27;;;;;;;0.84;100.00;100310.06;5041869;28;20061;-88
2022/01/07 10:22:14;;;;;;;39.33;22.05;;;;;;;0.98;100.00;100324.69;5048326;28;20041;-87
2022/01/07 10:24:54;;;;;;;39.05;20.77;;;;;;;1.01;100.00;100337.72;5059161;28;20053;-87
2022/01/07 10:27:21;;;;;;;35.67;19.47;;;;;;;0.97;100.00;100312.53;5053458;28;20073;-87
2022/01/07 10:29:48;;;;;;;35.92;18.25;;;;;;;1.13;100.00;100333.25;5055888;28;21194;-87
2022/01/07 10:32:25;;;;;;;36.05;18.77;;;;;;;1.10;100.00;100328.09;5056733;28;20161;-86
2022/01/07 10:45:46;;;;;;;37.10;20.88;;;;;;;0.82;100.00;100268.34;4988024;28;20181;-87
2022/01/07 10:48:14;;;;;;;38.50;20.73;;;;;;;1.09;100.00;100308.97;4985427;28;20455;-87
2022/01/07 10:50:44;;;;;;;33.78;19.58;;;;;;;1.09;100.00;100295.06;4971742;28;20050;-88
2022/01/07 10:53:26;;;;;;;39.80;22.10;;;;;;;1.16;100.00;100308.00;4985966;28;20056;-86
2022/01/07 10:56:06;;;;;;;39.65;20.73;;;;;;;1.26;100.00;100314.84;5007083;28;20062;-87
2022/01/07 10:58:58;;;;;;;36.10;20.50;;;;;;;1.23;100.00;100312.28;5015708;28;20054;-86
2022/01/07 11:01:26;;;;;;;35.50;19.92;;;;;;;1.16;100.00;100287.13;4992002;28;20050;-87
2022/01/07 11:03:55;;;;;;;38.70;19.95;;;;;;;1.26;100.00;100293.97;5000806;28;20374;-86
2022/01/07 11:06:24;;;;;;;33.55;19.85;;;;;;;1.16;100.00;100275.84;5000144;28;20662;-87
2022/01/07 11:08:54;;;;;;;39.28;20.40;;;;;;;1.29;100.00;100287.88;5005491;28;21617;-87
2022/01/07 11:11:23;;;;;;;36.67;20.50;;;;;;;1.32;100.00;100283.47;4988215;28;20050;-86
2022/01/07 11:13:50;;;;;;;30.92;17.75;;;;;;;1.40;100.00;100289.50;5005550;28;20062;-87
2022/01/07 11:16:18;;;;;;;32.35;19.35;;;;;;;1.26;100.00;100261.84;5008014;28;20059;-87
2022/01/07 11:18:48;;;;;;;37.00;19.58;;;;;;;1.44;100.00;100282.47;5005238;28;20476;-87
2022/01/07 11:21:17;;;;;;;33.72;21.20;;;;;;;1.44;100.00;100272.03;5003628;28;20420;-86
2022/01/07 11:23:45;;;;;;;39.88;20.17;;;;;;;1.28;100.00;100236.56;4987807;28;20465;-87
2022/01/07 11:26:15;;;;;;;36.63;18.67;;;;;;;1.17;100.00;100223.66;5023457;28;20050;-86
2022/01/07 11:29:11;;;;;;;37.53;19.75;;;;;;;1.44;100.00;100261.59;5015881;28;20111;-86
2022/01/07 11:31:37;;;;;;;34.92;19.25;;;;;;;1.44;100.00;100245.06;5001767;28;20486;-87
2022/01/07 11:34:25;;;;;;;35.20;19.65;;;;;;;1.46;100.00;100238.09;5010370;28;20056;-86
2022/01/07 11:36:52;;;;;;;34.45;18.00;;;;;;;1.50;100.00;100239.78;5014321;28;20110;-87
2022/01/07 11:39:21;;;;;;;38.00;18.45;;;;;;;1.65;100.00;100248.28;5022858;28;20312;-87